Time;durP1;ratioP1;P1;durP2;ratioP2;P2;SDS_P1;SDS_P2;PMS_P1;PMS_P2;Temp;Humidity;BMP_temperature;BMP_pressure;BME280_temperature;BME280_humidity;BME280_pressure;Samples;Min_cycle;Max_cycle;Signal;HPM_P1;HPM_P2
2023/04/09 00:00:11;;;;;;;;;;;9.60;99.90;;;;;;7339684;19;109091;-71
2023/04/09 00:02:39;;;;;;;;;;;9.60;99.90;;;;;;7338308;19;110150;-71
2023/04/09 00:05:07;;;;;;;;;;;9.60;99.90;;;;;;7336334;19;111149;-71
2023/04/09 00:07:34;;;;;;;;;;;9.60;99.90;;;;;;7338411;19;109163;-71
2023/04/09 00:10:01;;;;;;;;;;;9.60;99.90;;;;;;7333480;19;111216;-72
2023/04/09 00:12:29;;;;;;;;;;;9.60;99.90;;;;;;7339868;19;108523;-71
2023/04/09 00:14:56;;;;;;;;;;;9.70;99.90;;;;;;7339645;19;109626;-72
2023/04/09 00:17:23;;;;;;;;;;;9.70;99.90;;;;;;7337605;19;110174;-71
2023/04/09 00:19:50;;;;;;;;;;;9.70;99.90;;;;;;7344099;19;109031;-71
2023/04/09 00:22:17;;;;;;;;;;;9.80;99.90;;;;;;7337981;19;109073;-72
2023/04/09 00:24:44;;;;;;;;;;;9.80;99.90;;;;;;7339368;19;110456;-71
2023/04/09 00:27:12;;;;;;;;;;;9.80;99.90;;;;;;7337094;19;109029;-71
2023/04/09 00:29:39;;;;;;;;;;;9.80;99.90;;;;;;7340498;19;110353;-71
2023/04/09 00:32:06;;;;;;;;;;;9.80;99.90;;;;;;7336735;19;108525;-71
2023/04/09 00:34:33;;;;;;;;;;;9.80;99.90;;;;;;7337145;19;109858;-71
2023/04/09 00:37:00;;;;;;;;;;;9.90;99.90;;;;;;7337824;19;110142;-72
2023/04/09 00:39:28;;;;;;;;;;;10.00;99.90;;;;;;7341461;19;108818;-72
2023/04/09 00:41:56;;;;;;;;;;;10.00;99.90;;;;;;7336225;19;110140;-72
2023/04/09 00:44:24;;;;;;;;;;;10.00;99.90;;;;;;7336849;19;110104;-71
2023/04/09 00:46:54;;;;;;;;;;;10.00;99.90;;;;;;7335761;19;109133;-73
2023/04/09 00:49:23;;;;;;;;;;;10.10;99.90;;;;;;7330761;19;111177;-72
2023/04/09 00:51:51;;;;;;;;;;;10.20;99.90;;;;;;7335212;19;109380;-75
2023/04/09 00:54:18;;;;;;;;;;;10.20;99.90;;;;;;7336700;19;109091;-72
2023/04/09 00:56:45;;;;;;;;;;;10.30;99.90;;;;;;7337058;19;109987;-73
2023/04/09 00:59:12;;;;;;;;;;;10.40;99.90;;;;;;7336083;19;108671;-73
2023/04/09 01:01:40;;;;;;;;;;;10.40;99.90;;;;;;7335208;19;109176;-73
2023/04/09 01:04:07;;;;;;;;;;;10.50;99.90;;;;;;7337747;19;108801;-72
2023/04/09 01:06:37;;;;;;;;;;;10.50;99.90;;;;;;7335401;19;109108;-72
2023/04/09 01:09:23;;;;;;;;;;;10.50;99.90;;;;;;7331125;19;110201;-72
2023/04/09 01:11:55;;;;;;;;;;;10.60;99.90;;;;;;7339274;19;108459;-72
2023/04/09 01:14:52;;;;;;;;;;;10.60;99.90;;;;;;7338258;19;109251;-73
2023/04/09 01:17:29;;;;;;;;;;;10.60;99.90;;;;;;7332514;19;113018;-72
2023/04/09 01:20:07;;;;;;;;;;;10.70;99.90;;;;;;7333634;19;109097;-71
2023/04/09 01:22:52;;;;;;;;;;;10.70;99.90;;;;;;7334183;19;108495;-74
2023/04/09 01:25:49;;;;;;;;;;;10.70;99.90;;;;;;7336969;19;109171;-74
2023/04/09 01:28:22;;;;;;;;;;;10.70;99.90;;;;;;7333270;19;109303;-75
2023/04/09 01:30:52;;;;;;;;;;;10.70;99.90;;;;;;7330326;19;110166;-74
2023/04/09 01:33:20;;;;;;;;;;;10.70;99.90;;;;;;7332025;19;108892;-73
2023/04/09 01:38:30;;;;;;;;;;;10.80;99.90;;;;;;7337575;19;109088;-73
2023/04/09 01:40:58;;;;;;;;;;;10.80;99.90;;;;;;7334072;19;108593;-72
2023/04/09 01:43:36;;;;;;;;;;;10.80;99.90;;;;;;7332464;19;110322;-72
2023/04/09 01:46:03;;;;;;;;;;;10.80;99.90;;;;;;7333326;19;110711;-72
2023/04/09 01:48:30;;;;;;;;;;;10.80;99.90;;;;;;7337967;19;108944;-72
2023/04/09 01:50:58;;;;;;;;;;;10.80;99.90;;;;;;7334193;19;108975;-71
2023/04/09 01:53:27;;;;;;;;;;;10.80;99.90;;;;;;7326657;19;108760;-72
2023/04/09 01:55:59;;;;;;;;;;;10.90;99.90;;;;;;7335841;19;119510;-72
2023/04/09 01:58:26;;;;;;;;;;;10.90;99.90;;;;;;7334273;19;110687;-72
2023/04/09 02:00:59;;;;;;;;;;;10.80;99.90;;;;;;7335289;19;108928;-72
2023/04/09 02:03:38;;;;;;;;;;;10.80;99.90;;;;;;7333457;19;109374;-72
2023/04/09 02:06:08;;;;;;;;;;;10.80;99.90;;;;;;7332168;19;109785;-71
2023/04/09 02:08:35;;;;;;;;;;;10.80;99.90;;;;;;7332478;19;109347;-71
2023/04/09 02:11:03;;;;;;;;;;;10.80;99.90;;;;;;7340443;19;109528;-71
2023/04/09 02:13:31;;;;;;;;;;;10.80;99.90;;;;;;7332025;19;108991;-71
2023/04/09 02:15:59;;;;;;;;;;;10.80;99.90;;;;;;7333737;19;108659;-74
2023/04/09 02:18:28;;;;;;;;;;;10.80;99.90;;;;;;7332755;19;110212;-72
2023/04/09 02:20:57;;;;;;;;;;;10.80;99.90;;;;;;7335408;19;108884;-72
2023/04/09 02:23:25;;;;;;;;;;;10.70;99.90;;;;;;7332121;19;108864;-72
2023/04/09 02:25:52;;;;;;;;;;;10.70;99.90;;;;;;7335821;19;108920;-72
2023/04/09 02:28:19;;;;;;;;;;;10.70;99.90;;;;;;7333366;19;109519;-72
2023/04/09 02:30:46;;;;;;;;;;;10.70;99.90;;;;;;7335335;19;109424;-72
2023/04/09 02:33:13;;;;;;;;;;;10.80;99.90;;;;;;7334955;19;110615;-72
2023/04/09 02:35:40;;;;;;;;;;;10.90;99.90;;;;;;7331813;19;108390;-72
2023/04/09 02:38:12;;;;;;;;;;;10.90;99.90;;;;;;7331834;19;111132;-73
2023/04/09 02:40:40;;;;;;;;;;;10.90;99.90;;;;;;7336761;19;109727;-72
2023/04/09 02:43:07;;;;;;;;;;;10.90;99.90;;;;;;7330850;19;111307;-71
2023/04/09 02:45:35;;;;;;;;;;;10.90;99.90;;;;;;7332757;19;110107;-72
2023/04/09 02:48:02;;;;;;;;;;;11.00;99.90;;;;;;7333047;19;109231;-72
2023/04/09 02:50:29;;;;;;;;;;;11.00;99.90;;;;;;7329458;19;108818;-72
2023/04/09 02:52:56;;;;;;;;;;;11.00;99.90;;;;;;7337395;19;109112;-72
2023/04/09 02:55:23;;;;;;;;;;;11.10;99.90;;;;;;7329435;19;108407;-73
2023/04/09 02:57:50;;;;;;;;;;;11.10;99.90;;;;;;7332959;19;110437;-71
2023/04/09 03:00:17;;;;;;;;;;;11.10;99.90;;;;;;7333798;19;113479;-72
2023/04/09 03:02:45;;;;;;;;;;;11.10;99.90;;;;;;7334612;19;109179;-73
2023/04/09 03:05:12;;;;;;;;;;;11.10;99.90;;;;;;7332827;19;110718;-72
2023/04/09 03:07:39;;;;;;;;;;;11.10;99.90;;;;;;7330086;19;108735;-73
2023/04/09 03:10:06;;;;;;;;;;;11.10;99.90;;;;;;7337312;19;108673;-72
2023/04/09 03:12:33;;;;;;;;;;;11.10;99.90;;;;;;7338903;19;109970;-72
2023/04/09 03:15:00;;;;;;;;;;;11.10;99.90;;;;;;7341729;19;109182;-72
2023/04/09 03:17:30;;;;;;;;;;;11.10;99.90;;;;;;7336853;19;112544;-72
2023/04/09 03:19:58;;;;;;;;;;;11.10;99.90;;;;;;7339386;19;109917;-73
2023/04/09 03:22:25;;;;;;;;;;;11.10;99.90;;;;;;7338872;19;109057;-76
2023/04/09 03:24:52;;;;;;;;;;;11.10;99.90;;;;;;7337714;19;112786;-77
2023/04/09 03:27:19;;;;;;;;;;;11.10;99.90;;;;;;7336337;19;108833;-76
2023/04/09 03:29:46;;;;;;;;;;;11.10;99.90;;;;;;7340722;19;109101;-76
2023/04/09 03:32:13;;;;;;;;;;;11.10;99.90;;;;;;7337131;19;112521;-72
2023/04/09 03:34:44;;;;;;;;;;;11.10;99.90;;;;;;7340580;19;108617;-72
2023/04/09 03:37:11;;;;;;;;;;;11.10;99.90;;;;;;7345033;19;108621;-73
2023/04/09 03:39:38;;;;;;;;;;;11.10;99.90;;;;;;7338486;19;110104;-72
2023/04/09 03:42:05;;;;;;;;;;;11.10;99.90;;;;;;7339220;19;108546;-73
2023/04/09 03:44:32;;;;;;;;;;;11.10;99.90;;;;;;7340157;19;109781;-73
2023/04/09 03:46:59;;;;;;;;;;;11.10;99.90;;;;;;7338658;19;108804;-72
2023/04/09 03:49:26;;;;;;;;;;;11.10;99.90;;;;;;7339935;19;109191;-72
2023/04/09 03:51:53;;;;;;;;;;;11.10;99.90;;;;;;7339186;19;110138;-73
2023/04/09 03:54:20;;;;;;;;;;;11.10;99.90;;;;;;7340583;19;111235;-72
2023/04/09 03:56:47;;;;;;;;;;;11.10;99.90;;;;;;7337994;19;110256;-72
2023/04/09 03:59:14;;;;;;;;;;;11.00;99.90;;;;;;7342681;19;112093;-72
2023/04/09 04:01:41;;;;;;;;;;;11.00;99.90;;;;;;7339388;19;108846;-72
2023/04/09 04:04:09;;;;;;;;;;;10.90;99.90;;;;;;7337806;19;109351;-73
2023/04/09 04:06:36;;;;;;;;;;;10.80;99.90;;;;;;7337558;19;109329;-72
2023/04/09 04:09:03;;;;;;;;;;;10.80;99.90;;;;;;7338816;19;109637;-72
2023/04/09 04:11:30;;;;;;;;;;;10.70;99.90;;;;;;7337700;19;110170;-72
2023/04/09 04:13:57;;;;;;;;;;;10.60;99.90;;;;;;7337949;19;111066;-72
2023/04/09 04:16:24;;;;;;;;;;;10.60;99.90;;;;;;7335828;19;110393;-72
2023/04/09 04:18:51;;;;;;;;;;;10.50;99.90;;;;;;7339343;19;110192;-72
2023/04/09 04:21:19;;;;;;;;;;;10.40;99.90;;;;;;7340838;19;109184;-72
2023/04/09 04:23:46;;;;;;;;;;;10.30;99.90;;;;;;7337423;19;110451;-72
2023/04/09 04:26:13;;;;;;;;;;;10.20;99.90;;;;;;7337129;19;110113;-72
2023/04/09 04:28:40;;;;;;;;;;;10.20;99.90;;;;;;7338536;19;108763;-72
2023/04/09 04:31:08;;;;;;;;;;;10.10;99.90;;;;;;7337437;19;110013;-72
2023/04/09 04:33:36;;;;;;;;;;;10.10;99.90;;;;;;7336992;19;110014;-72
2023/04/09 04:36:05;;;;;;;;;;;10.00;99.90;;;;;;7335655;19;110692;-72
2023/04/09 04:38:33;;;;;;;;;;;10.00;99.90;;;;;;7337448;19;109107;-72
2023/04/09 04:41:00;;;;;;;;;;;9.90;99.90;;;;;;7341483;19;109494;-72
2023/04/09 04:43:28;;;;;;;;;;;9.80;99.90;;;;;;7335635;19;110150;-73
2023/04/09 04:45:55;;;;;;;;;;;9.80;99.90;;;;;;7336983;19;109521;-71
2023/04/09 04:48:23;;;;;;;;;;;9.70;99.90;;;;;;7336720;19;109407;-71
2023/04/09 04:50:54;;;;;;;;;;;9.70;99.90;;;;;;7338362;19;111057;-71
2023/04/09 04:53:21;;;;;;;;;;;9.70;99.90;;;;;;7337166;19;108552;-72
2023/04/09 04:55:49;;;;;;;;;;;9.70;99.90;;;;;;7336451;19;110445;-71
2023/04/09 04:58:16;;;;;;;;;;;9.80;99.90;;;;;;7336376;19;110674;-72
2023/04/09 05:00:44;;;;;;;;;;;9.80;99.90;;;;;;7338886;19;109650;-72
2023/04/09 05:03:11;;;;;;;;;;;9.70;99.90;;;;;;7342516;19;109689;-72
2023/04/09 05:05:39;;;;;;;;;;;9.70;99.90;;;;;;7337036;19;110117;-73
2023/04/09 05:08:06;;;;;;;;;;;9.70;99.90;;;;;;7340093;19;108834;-72
2023/04/09 05:10:33;;;;;;;;;;;9.70;99.90;;;;;;7334646;19;110173;-73
2023/04/09 05:13:00;;;;;;;;;;;9.70;99.90;;;;;;7336140;19;109740;-72
2023/04/09 05:15:27;;;;;;;;;;;9.70;99.90;;;;;;7337571;19;109159;-72
2023/04/09 05:17:54;;;;;;;;;;;9.60;99.90;;;;;;7336627;19;110213;-72
2023/04/09 05:20:21;;;;;;;;;;;9.60;99.90;;;;;;7339219;19;110238;-72
2023/04/09 05:22:48;;;;;;;;;;;9.60;99.90;;;;;;7337881;19;109071;-72
2023/04/09 05:25:16;;;;;;;;;;;9.50;99.90;;;;;;7343673;19;109185;-71
2023/04/09 05:27:43;;;;;;;;;;;9.50;99.90;;;;;;7336494;19;108568;-72
2023/04/09 05:30:10;;;;;;;;;;;9.50;99.90;;;;;;7336615;19;110145;-72
2023/04/09 05:32:37;;;;;;;;;;;9.50;99.90;;;;;;7333677;19;109172;-72
2023/04/09 05:35:04;;;;;;;;;;;9.50;99.90;;;;;;7337746;19;109026;-73
2023/04/09 05:37:31;;;;;;;;;;;9.40;99.90;;;;;;7333811;19;110350;-73
2023/04/09 05:39:58;;;;;;;;;;;9.40;99.90;;;;;;7336441;19;108774;-73
2023/04/09 05:42:25;;;;;;;;;;;9.50;99.90;;;;;;7334142;19;109629;-72
2023/04/09 05:44:52;;;;;;;;;;;9.50;99.90;;;;;;7333522;19;110004;-72
2023/04/09 05:47:19;;;;;;;;;;;9.50;99.90;;;;;;7338154;19;109964;-72
2023/04/09 05:49:46;;;;;;;;;;;9.60;99.90;;;;;;7336493;19;109748;-72
2023/04/09 05:52:15;;;;;;;;;;;9.60;99.90;;;;;;7332260;19;111464;-72
2023/04/09 05:54:42;;;;;;;;;;;9.60;99.90;;;;;;7335172;19;110771;-72
2023/04/09 05:57:10;;;;;;;;;;;9.70;99.90;;;;;;7335091;19;109128;-77
2023/04/09 05:59:37;;;;;;;;;;;9.70;99.90;;;;;;7334366;19;108647;-75
2023/04/09 06:02:04;;;;;;;;;;;9.70;99.90;;;;;;7336200;19;109103;-74
2023/04/09 06:04:31;;;;;;;;;;;9.70;99.90;;;;;;7330726;19;109171;-78
2023/04/09 06:06:59;;;;;;;;;;;9.80;99.90;;;;;;7336318;19;108834;-71
2023/04/09 06:09:26;;;;;;;;;;;9.70;99.90;;;;;;7339663;19;110722;-72
2023/04/09 06:11:53;;;;;;;;;;;9.80;99.90;;;;;;7332344;19;109933;-71
2023/04/09 06:14:20;;;;;;;;;;;9.80;99.90;;;;;;7335416;19;109697;-73
2023/04/09 06:16:47;;;;;;;;;;;9.80;99.90;;;;;;7328225;19;109737;-78
2023/04/09 06:19:15;;;;;;;;;;;9.90;99.90;;;;;;7334894;19;109116;-75
2023/04/09 06:21:42;;;;;;;;;;;9.90;99.90;;;;;;7331274;19;110983;-76
2023/04/09 06:24:09;;;;;;;;;;;9.90;99.90;;;;;;7331502;19;109630;-73
2023/04/09 06:26:39;;;;;;;;;;;10.00;99.90;;;;;;7331200;19;108575;-72
2023/04/09 06:29:06;;;;;;;;;;;10.00;99.90;;;;;;7333840;19;109357;-74
2023/04/09 06:31:33;;;;;;;;;;;10.00;99.90;;;;;;7336671;19;109354;-72
2023/04/09 06:34:00;;;;;;;;;;;10.10;99.90;;;;;;7327875;19;109693;-73
2023/04/09 06:36:29;;;;;;;;;;;10.20;99.90;;;;;;7331606;19;112188;-73
2023/04/09 06:38:56;;;;;;;;;;;10.20;99.90;;;;;;7331244;19;109559;-73
2023/04/09 06:41:24;;;;;;;;;;;10.30;99.90;;;;;;7333748;19;110506;-73
2023/04/09 06:43:51;;;;;;;;;;;10.40;99.90;;;;;;7331689;19;110489;-72
2023/04/09 06:46:20;;;;;;;;;;;10.50;99.90;;;;;;7339745;19;108530;-73
2023/04/09 06:48:47;;;;;;;;;;;10.50;99.90;;;;;;7342148;19;109080;-73
2023/04/09 06:51:14;;;;;;;;;;;10.50;99.90;;;;;;7345816;19;110601;-72
2023/04/09 06:53:41;;;;;;;;;;;10.60;99.90;;;;;;7335513;19;109518;-70
2023/04/09 06:56:08;;;;;;;;;;;10.70;99.90;;;;;;7338785;19;110233;-73
2023/04/09 06:58:35;;;;;;;;;;;10.80;99.90;;;;;;7336455;19;108451;-73
2023/04/09 07:01:02;;;;;;;;;;;10.90;99.90;;;;;;7340499;19;109324;-70
2023/04/09 07:03:29;;;;;;;;;;;11.00;99.90;;;;;;7337875;19;109282;-70
2023/04/09 07:05:57;;;;;;;;;;;11.10;99.90;;;;;;7334765;19;108879;-70
2023/04/09 07:08:25;;;;;;;;;;;11.10;99.90;;;;;;7339651;19;109442;-72
2023/04/09 07:10:52;;;;;;;;;;;11.20;99.90;;;;;;7344343;19;110983;-69
2023/04/09 07:13:19;;;;;;;;;;;11.20;99.90;;;;;;7345652;19;109487;-69
2023/04/09 07:15:46;;;;;;;;;;;11.40;99.90;;;;;;7343032;19;109442;-70
2023/04/09 07:18:13;;;;;;;;;;;11.50;99.90;;;;;;7339482;19;108309;-72
2023/04/09 07:20:40;;;;;;;;;;;11.60;99.90;;;;;;7339988;19;109217;-72
2023/04/09 07:23:07;;;;;;;;;;;11.70;99.90;;;;;;7333885;19;109059;-72
2023/04/09 07:25:34;;;;;;;;;;;11.80;99.90;;;;;;7340036;19;109013;-71
2023/04/09 07:28:01;;;;;;;;;;;12.00;99.90;;;;;;7338862;19;109509;-72
2023/04/09 07:30:28;;;;;;;;;;;12.10;99.90;;;;;;7339707;19;111825;-72
2023/04/09 07:32:55;;;;;;;;;;;12.10;99.90;;;;;;7333144;19;109794;-72
2023/04/09 07:35:23;;;;;;;;;;;12.20;99.90;;;;;;7343726;19;108878;-72
2023/04/09 07:37:50;;;;;;;;;;;12.20;99.90;;;;;;7338098;19;110811;-72
2023/04/09 07:40:19;;;;;;;;;;;12.20;99.90;;;;;;7337912;19;108212;-70
2023/04/09 07:42:46;;;;;;;;;;;12.30;99.90;;;;;;7337677;19;111577;-70
2023/04/09 07:45:13;;;;;;;;;;;12.30;99.90;;;;;;7337928;19;108927;-72
2023/04/09 07:47:40;;;;;;;;;;;12.30;99.90;;;;;;7337770;19;109172;-72
2023/04/09 07:50:08;;;;;;;;;;;12.40;99.90;;;;;;7334516;19;112905;-73
2023/04/09 07:52:35;;;;;;;;;;;12.40;99.90;;;;;;7337736;19;110648;-70
2023/04/09 07:55:02;;;;;;;;;;;12.50;99.90;;;;;;7339588;19;108775;-72
2023/04/09 07:57:32;;;;;;;;;;;12.60;99.90;;;;;;7343010;19;110296;-73
2023/04/09 08:00:03;;;;;;;;;;;12.70;99.90;;;;;;7340770;19;108827;-72
2023/04/09 08:02:30;;;;;;;;;;;12.80;99.90;;;;;;7336062;19;110309;-73
2023/04/09 08:04:58;;;;;;;;;;;12.90;99.90;;;;;;7337540;19;108689;-73
2023/04/09 08:07:25;;;;;;;;;;;13.10;99.90;;;;;;7337707;19;109208;-70
2023/04/09 08:09:52;;;;;;;;;;;13.20;99.90;;;;;;7338062;19;110209;-71
2023/04/09 08:12:19;;;;;;;;;;;13.30;99.90;;;;;;7336567;19;108771;-70
2023/04/09 08:14:46;;;;;;;;;;;13.30;99.90;;;;;;7338814;19;109037;-70
2023/04/09 08:17:13;;;;;;;;;;;13.40;99.90;;;;;;7334122;19;109032;-72
2023/04/09 08:19:40;;;;;;;;;;;13.40;99.90;;;;;;7340760;19;108588;-72
2023/04/09 08:22:07;;;;;;;;;;;13.60;99.90;;;;;;7337940;19;113866;-74
2023/04/09 08:24:34;;;;;;;;;;;13.70;99.90;;;;;;7332483;19;109124;-71
2023/04/09 08:27:01;;;;;;;;;;;13.80;99.90;;;;;;7332384;19;108574;-76
2023/04/09 08:29:29;;;;;;;;;;;13.80;99.90;;;;;;7325667;19;109795;-71
2023/04/09 08:31:56;;;;;;;;;;;13.90;99.90;;;;;;7325095;19;108793;-72
2023/04/09 08:34:23;;;;;;;;;;;14.00;99.90;;;;;;7331547;19;110199;-72
2023/04/09 08:36:51;;;;;;;;;;;14.10;99.90;;;;;;7333028;19;110631;-71
2023/04/09 08:39:19;;;;;;;;;;;14.20;99.90;;;;;;7332213;19;109638;-70
2023/04/09 08:41:47;;;;;;;;;;;14.20;99.90;;;;;;7338773;19;109984;-70
2023/04/09 08:44:15;;;;;;;;;;;14.30;99.90;;;;;;7329595;19;109063;-70
2023/04/09 08:46:43;;;;;;;;;;;14.30;99.90;;;;;;7329826;19;110727;-71
2023/04/09 08:49:11;;;;;;;;;;;14.30;99.90;;;;;;7330703;19;109473;-70
2023/04/09 08:51:39;;;;;;;;;;;14.40;99.90;;;;;;7333927;19;109503;-71
2023/04/09 08:54:06;;;;;;;;;;;14.50;99.90;;;;;;7335423;19;110775;-70
2023/04/09 08:56:33;;;;;;;;;;;14.50;99.90;;;;;;7332736;19;110208;-70
2023/04/09 08:59:00;;;;;;;;;;;14.60;99.90;;;;;;7332176;19;108756;-70
2023/04/09 09:01:29;;;;;;;;;;;14.70;99.90;;;;;;7337562;19;111018;-71
2023/04/09 09:04:00;;;;;;;;;;;14.70;99.90;;;;;;7332323;19;109794;-71
2023/04/09 09:06:31;;;;;;;;;;;14.70;99.90;;;;;;7335026;19;109821;-71
2023/04/09 09:09:03;;;;;;;;;;;14.90;99.90;;;;;;7330045;19;111437;-71
2023/04/09 09:11:31;;;;;;;;;;;15.00;99.90;;;;;;7330801;19;108521;-70
2023/04/09 09:13:59;;;;;;;;;;;15.20;99.90;;;;;;7333847;19;109410;-73
2023/04/09 09:16:26;;;;;;;;;;;15.20;99.90;;;;;;7333042;19;109602;-72
2023/04/09 09:18:55;;;;;;;;;;;15.30;99.90;;;;;;7332378;19;108532;-72
2023/04/09 09:21:25;;;;;;;;;;;15.40;99.90;;;;;;7333480;19;109402;-73
2023/04/09 09:23:52;;;;;;;;;;;15.80;99.90;;;;;;7339858;19;111815;-73
2023/04/09 09:26:27;;;;;;;;;;;16.00;99.90;;;;;;7331822;19;109693;-74
2023/04/09 09:28:57;;;;;;;;;;;15.90;99.90;;;;;;7333326;19;109424;-74
2023/04/09 09:31:24;;;;;;;;;;;15.90;99.90;;;;;;7333247;19;109387;-73
2023/04/09 09:33:52;;;;;;;;;;;15.90;99.90;;;;;;7333076;19;108425;-74
2023/04/09 09:36:32;;;;;;;;;;;15.90;99.90;;;;;;7335662;19;109104;-73
2023/04/09 09:39:02;;;;;;;;;;;15.90;99.90;;;;;;7333138;19;109293;-73
2023/04/09 09:41:29;;;;;;;;;;;16.00;99.90;;;;;;7337111;19;109746;-72
2023/04/09 09:43:57;;;;;;;;;;;16.10;99.90;;;;;;7333503;19;110969;-72
2023/04/09 09:46:25;;;;;;;;;;;16.10;99.90;;;;;;7335573;19;110220;-73
2023/04/09 09:48:52;;;;;;;;;;;16.00;99.90;;;;;;7328370;19;112130;-72
2023/04/09 09:51:23;;;;;;;;;;;16.00;99.90;;;;;;7329861;19;108910;-71
2023/04/09 09:53:53;;;;;;;;;;;16.00;99.90;;;;;;7333221;19;110274;-72
2023/04/09 09:56:21;;;;;;;;;;;16.20;99.90;;;;;;7334612;19;110178;-72
2023/04/09 09:58:53;;;;;;;;;;;16.10;99.90;;;;;;7335206;19;109619;-72
2023/04/09 10:01:23;;;;;;;;;;;16.20;99.90;;;;;;7334527;19;110096;-73
2023/04/09 10:03:50;;;;;;;;;;;16.30;99.90;;;;;;7333395;19;109108;-73
2023/04/09 10:06:17;;;;;;;;;;;16.30;99.90;;;;;;7335026;19;108862;-73
2023/04/09 10:08:46;;;;;;;;;;;16.40;99.90;;;;;;7339904;19;109141;-72
2023/04/09 10:11:18;;;;;;;;;;;16.40;99.90;;;;;;7335443;19;109746;-72
2023/04/09 10:13:49;;;;;;;;;;;16.50;99.90;;;;;;7335316;19;108742;-72
2023/04/09 10:16:16;;;;;;;;;;;16.60;99.90;;;;;;7334729;19;109857;-73
2023/04/09 10:18:43;;;;;;;;;;;16.70;99.90;;;;;;7332487;19;108456;-73
2023/04/09 10:21:16;;;;;;;;;;;16.80;99.90;;;;;;7334220;19;110511;-72
2023/04/09 10:23:44;;;;;;;;;;;16.90;99.90;;;;;;7333077;19;115778;-71
2023/04/09 10:26:11;;;;;;;;;;;17.10;99.90;;;;;;7335611;19;108749;-73
2023/04/09 10:28:38;;;;;;;;;;;17.10;99.90;;;;;;7335061;19;109715;-73
2023/04/09 10:31:05;;;;;;;;;;;17.20;99.90;;;;;;7339378;19;111629;-73
2023/04/09 10:33:34;;;;;;;;;;;17.30;99.90;;;;;;7334701;19;108764;-73
2023/04/09 10:36:11;;;;;;;;;;;17.40;99.90;;;;;;7332250;19;110090;-72
2023/04/09 10:38:40;;;;;;;;;;;17.60;99.90;;;;;;7328444;19;108676;-73
2023/04/09 10:41:10;;;;;;;;;;;17.60;99.90;;;;;;7335750;19;108576;-72
2023/04/09 10:43:37;;;;;;;;;;;17.70;99.90;;;;;;7328041;19;109283;-71
2023/04/09 10:46:07;;;;;;;;;;;17.70;99.90;;;;;;7332938;19;109457;-67
2023/04/09 10:48:34;;;;;;;;;;;17.90;99.90;;;;;;7329870;19;111370;-67
2023/04/09 10:51:02;;;;;;;;;;;18.30;99.90;;;;;;7330817;19;110548;-67
2023/04/09 10:53:30;;;;;;;;;;;18.80;99.90;;;;;;7336938;19;109647;-67
2023/04/09 10:55:57;;;;;;;;;;;19.10;99.90;;;;;;7333520;19;109599;-67
2023/04/09 10:58:24;;;;;;;;;;;19.20;99.90;;;;;;7330353;19;108625;-67
2023/04/09 11:00:52;;;;;;;;;;;19.20;99.90;;;;;;7331286;19;110065;-67
2023/04/09 11:03:21;;;;;;;;;;;19.30;99.90;;;;;;7331843;19;109701;-67
2023/04/09 11:05:59;;;;;;;;;;;19.30;99.90;;;;;;7332683;19;108608;-67
2023/04/09 11:08:27;;;;;;;;;;;19.50;99.90;;;;;;7334249;19;108845;-67
2023/04/09 11:10:57;;;;;;;;;;;19.60;99.90;;;;;;7331294;19;109256;-67
2023/04/09 11:13:24;;;;;;;;;;;19.70;99.90;;;;;;7338690;19;108552;-67
2023/04/09 11:15:51;;;;;;;;;;;19.90;99.90;;;;;;7330294;19;109714;-67
2023/04/09 11:18:21;;;;;;;;;;;20.00;99.90;;;;;;7329832;19;109666;-67
2023/04/09 11:20:49;;;;;;;;;;;20.00;99.90;;;;;;7331204;19;109091;-68
2023/04/09 11:23:16;;;;;;;;;;;19.90;99.90;;;;;;7325274;19;108920;-67
2023/04/09 11:25:47;;;;;;;;;;;19.80;99.90;;;;;;7332160;19;109030;-67
2023/04/09 11:28:15;;;;;;;;;;;19.80;99.90;;;;;;7330940;19;108828;-67
2023/04/09 11:30:43;;;;;;;;;;;19.80;99.90;;;;;;7329427;19;110260;-67
2023/04/09 11:33:13;;;;;;;;;;;19.80;99.90;;;;;;7331290;19;108873;-70
2023/04/09 11:35:42;;;;;;;;;;;19.90;99.90;;;;;;7335034;19;110141;-75
2023/04/09 11:38:10;;;;;;;;;;;19.90;99.90;;;;;;7340246;19;108785;-73
2023/04/09 11:40:50;;;;;;;;;;;19.90;99.90;;;;;;7336733;19;109191;-71
2023/04/09 11:43:19;;;;;;;;;;;20.00;99.90;;;;;;7337858;19;109365;-75
2023/04/09 11:45:48;;;;;;;;;;;20.10;99.90;;;;;;7337708;19;109311;-74
2023/04/09 11:48:17;;;;;;;;;;;20.30;99.90;;;;;;7336743;19;109145;-67
2023/04/09 11:50:44;;;;;;;;;;;20.50;99.90;;;;;;7336193;19;109018;-67
2023/04/09 11:53:20;;;;;;;;;;;20.50;99.90;;;;;;7338728;19;108363;-68
2023/04/09 11:55:51;;;;;;;;;;;20.50;99.90;;;;;;7338380;19;109619;-67
2023/04/09 11:58:21;;;;;;;;;;;20.40;99.90;;;;;;7343978;19;109431;-69
2023/04/09 12:00:51;;;;;;;;;;;20.50;99.90;;;;;;7338540;19;112974;-68
2023/04/09 12:03:26;;;;;;;;;;;20.60;99.90;;;;;;7336610;19;112392;-67
2023/04/09 12:05:53;;;;;;;;;;;20.70;99.90;;;;;;7337699;19;109038;-67
2023/04/09 12:08:23;;;;;;;;;;;20.90;99.90;;;;;;7335106;19;109118;-67
2023/04/09 12:10:51;;;;;;;;;;;20.90;99.90;;;;;;7336261;19;110106;-68
2023/04/09 12:13:20;;;;;;;;;;;21.00;99.90;;;;;;7336425;19;109678;-67
2023/04/09 12:15:47;;;;;;;;;;;21.30;99.90;;;;;;7337398;19;110499;-67
2023/04/09 12:18:14;;;;;;;;;;;21.50;99.90;;;;;;7337586;19;109471;-68
2023/04/09 12:20:43;;;;;;;;;;;21.70;99.90;;;;;;7340282;19;108904;-68
2023/04/09 12:23:10;;;;;;;;;;;21.90;99.90;;;;;;7333880;19;109276;-67
2023/04/09 12:25:38;;;;;;;;;;;21.90;99.90;;;;;;7340420;19;108381;-68
2023/04/09 12:28:06;;;;;;;;;;;22.00;99.90;;;;;;7336026;19;109452;-67
2023/04/09 12:30:33;;;;;;;;;;;22.10;99.90;;;;;;7335071;19;111188;-67
2023/04/09 12:33:01;;;;;;;;;;;22.10;99.90;;;;;;7335028;19;109504;-67
2023/04/09 12:35:28;;;;;;;;;;;22.00;99.30;;;;;;7335689;19;108881;-67
2023/04/09 12:37:58;;;;;;;;;;;21.70;99.90;;;;;;7332067;19;109617;-67
2023/04/09 12:40:25;;;;;;;;;;;21.70;99.90;;;;;;7332938;19;109469;-67
2023/04/09 12:42:53;;;;;;;;;;;21.70;99.90;;;;;;7337451;19;109361;-67
2023/04/09 12:45:20;;;;;;;;;;;21.60;99.90;;;;;;7335758;19;108905;-67
2023/04/09 12:47:47;;;;;;;;;;;21.60;99.90;;;;;;7333644;19;109383;-67
2023/04/09 12:50:15;;;;;;;;;;;21.70;99.90;;;;;;7335521;19;109178;-67
2023/04/09 12:52:42;;;;;;;;;;;22.00;99.90;;;;;;7335494;19;111112;-68
2023/04/09 12:55:10;;;;;;;;;;;22.20;99.90;;;;;;7336289;19;108635;-67
2023/04/09 12:57:38;;;;;;;;;;;22.30;99.90;;;;;;7333715;19;110523;-67
2023/04/09 13:00:06;;;;;;;;;;;22.40;99.90;;;;;;7336319;19;110258;-67
2023/04/09 13:02:34;;;;;;;;;;;22.40;99.90;;;;;;7338960;19;110286;-67
2023/04/09 13:05:01;;;;;;;;;;;22.30;99.90;;;;;;7334316;19;110073;-67
2023/04/09 13:07:28;;;;;;;;;;;22.40;99.20;;;;;;7333276;19;113484;-67
2023/04/09 13:09:56;;;;;;;;;;;22.40;99.90;;;;;;7333186;19;111983;-67
2023/04/09 13:12:23;;;;;;;;;;;22.40;99.10;;;;;;7331645;19;109483;-67
2023/04/09 13:14:52;;;;;;;;;;;22.30;99.90;;;;;;7335430;19;108906;-67
2023/04/09 13:17:19;;;;;;;;;;;22.40;99.80;;;;;;7334809;19;110060;-66
2023/04/09 13:19:46;;;;;;;;;;;22.30;99.50;;;;;;7332311;19;108869;-68
2023/04/09 13:22:14;;;;;;;;;;;22.30;98.40;;;;;;7334865;19;111511;-67
2023/04/09 13:24:42;;;;;;;;;;;22.20;99.90;;;;;;7339200;19;110770;-67
2023/04/09 13:27:09;;;;;;;;;;;22.20;99.20;;;;;;7337504;19;108351;-66
2023/04/09 13:29:37;;;;;;;;;;;22.20;99.10;;;;;;7332234;19;109551;-67
2023/04/09 13:32:09;;;;;;;;;;;22.00;98.90;;;;;;7331812;19;110336;-67
2023/04/09 13:34:37;;;;;;;;;;;21.80;99.10;;;;;;7334896;19;108849;-66
2023/04/09 13:37:04;;;;;;;;;;;21.70;97.70;;;;;;7334763;19;109058;-67
2023/04/09 13:39:31;;;;;;;;;;;21.40;98.90;;;;;;7334462;19;109733;-67
2023/04/09 13:42:00;;;;;;;;;;;21.30;99.50;;;;;;7334427;19;109174;-67
2023/04/09 13:44:34;;;;;;;;;;;21.30;99.20;;;;;;7332608;19;109187;-67
2023/04/09 13:47:01;;;;;;;;;;;21.40;98.40;;;;;;7337073;19;109144;-67
2023/04/09 13:49:29;;;;;;;;;;;21.40;98.70;;;;;;7333539;19;109823;-67
2023/04/09 13:51:56;;;;;;;;;;;21.50;97.40;;;;;;7328367;19;110990;-67
2023/04/09 13:54:24;;;;;;;;;;;21.60;96.40;;;;;;7334816;19;108567;-66
2023/04/09 13:56:51;;;;;;;;;;;21.70;97.10;;;;;;7332354;19;111626;-67
2023/04/09 13:59:18;;;;;;;;;;;21.80;98.50;;;;;;7330592;19;109611;-67
2023/04/09 14:01:45;;;;;;;;;;;22.10;98.50;;;;;;7333743;19;108773;-67
2023/04/09 14:04:12;;;;;;;;;;;22.40;98.90;;;;;;7335071;19;109327;-67
2023/04/09 14:06:41;;;;;;;;;;;22.60;96.30;;;;;;7332968;19;108895;-67
2023/04/09 14:09:08;;;;;;;;;;;22.80;97.50;;;;;;7341865;19;109779;-67
2023/04/09 14:11:35;;;;;;;;;;;23.00;98.90;;;;;;7332702;19;109295;-67
2023/04/09 14:14:02;;;;;;;;;;;23.20;96.90;;;;;;7333894;19;108948;-67